East Swanzey, NH (03446)

2:24 AM EDT on April 28, 2015 (GMT -0400)
APRSWXNET | | Change Station
CLOSE
Current Station
Personal Weather Station
Location: Marlborough, NH
Elevation: 754 ft
Nearby Weather Stations

Elev 754 ft 42.91 °N, 72.22 °W | Updated 23 minutes ago

Partly Cloudy
Partly Cloudy
41 °F
Feels Like 41 °F
N
0
Wind Variable Wind from SW
Gusts 1.0 mph

Today
High -- | Low -- °F
--% Chance of Precip.
Yesterday
High -- | Low -- °F
Precip. -- in
5:47 AM 7:46 PM
Waxing Gibbous, 71% visible
Pressure 29.69 in
Visibility 10.0 miles
Clouds Overcast 8000 ft
Windchill 41 °F
Dew Point 36 °F
Humidity 83%
Rainfall in
Snow Depth Not available.
UV 0 out of 12
Pollen 7.80 out of 12
Air Quality Not available.
Flu Activity Regional
METAR KEEN 280615Z AUTO 01005KT 10SM OVC080 07/01 A2969 RMK AO1

More Conditions Fewer Conditions

Pressure 29.69 in
Visibility 10.0 miles
Clouds Overcast 8000 ft
Windchill 41 °F
Dew Point 36 °F
Humidity 83%
Rainfall in
Snow Depth Not available.
UV 0 out of 12
Pollen 7.80 out of 12
Air Quality Not available.
Flu Activity Regional
METAR KEEN 280615Z AUTO 01005KT 10SM OVC080 07/01 A2969 RMK AO1

More Conditions Fewer Conditions

10-Day Weather Forecast

Almanac

Astronomy

Apr. 28, 2015 Rise Set
Actual Time
Civil Twilight
Nautical Twilight
Astronomical Twilight
Moon
Length of Visible Light
Length of Day
Tomorrow will be .
, % of the Moon is Illuminated

Today's Extremes

State Highs State Lows

Community

WunderPhotos

Upload Photos

1,817,591 photos uploaded!

WunderBlogs® & News

Nearby

Air Quality

  Air Quality AQ Index Pollutant
Not available.

Snow Depth

Station Depth Elevation

Earthquake Activity

City Distance Mag. Time & Date
Minimum magnitude displayed is 2.5.

Coastal Water Temperatures

Place Temperature

Stations

Nearby Weather Stations

Station Location Temp. Windchill Dew Point Humidity Wind Precip. Elev Updated Type